Time;durP1;ratioP1;P1;durP2;ratioP2;P2;SDS_P1;SDS_P2;PMS_P1;PMS_P2;Temp;Humidity;BMP_temperature;BMP_pressure;BME280_temperature;BME280_humidity;BME280_pressure;Samples;Min_cycle;Max_cycle;Signal;HPM_P1;HPM_P2
2022/07/01 01:10:27;;;;;;;5.00;4.22;;;;;;;;;;6245205;22;20231;-88
2022/07/01 02:49:02;;;;;;;2.97;2.67;;;;;;;;;;6214434;23;20204;-90
2022/07/01 02:51:30;;;;;;;2.53;2.33;;;;;;;;;;6215543;23;20196;-90
2022/07/01 02:54:04;;;;;;;2.75;2.38;;;;;;;;;;6214949;23;20173;-90
2022/07/01 02:56:32;;;;;;;2.67;2.47;;;;;;;;;;6214887;23;20192;-89
2022/07/01 02:59:02;;;;;;;2.35;2.08;;;;;;;;;;6214983;23;20173;-89
2022/07/01 03:01:30;;;;;;;3.03;2.28;;;;;;;;;;6215432;23;20174;-89
2022/07/01 03:04:05;;;;;;;2.40;2.20;;;;;;;;;;6215308;23;20173;-89
2022/07/01 03:06:34;;;;;;;2.70;2.22;;;;;;;;;;6214591;23;20161;-89
2022/07/01 03:09:07;;;;;;;2.75;1.95;;;;;;;;;;6214604;23;20184;-89
2022/07/01 03:11:34;;;;;;;2.72;2.10;;;;;;;;;;6215064;23;20173;-90
2022/07/01 03:14:04;;;;;;;2.30;2.10;;;;;;;;;;6215122;23;20672;-89
2022/07/01 03:16:35;;;;;;;2.63;2.00;;;;;;;;;;6215313;23;20189;-89
2022/07/01 03:19:03;;;;;;;2.30;2.10;;;;;;;;;;6215277;23;20174;-90
2022/07/01 03:21:35;;;;;;;2.38;2.10;;;;;;;;;;6214961;23;20173;-90
2022/07/01 03:24:04;;;;;;;3.25;2.20;;;;;;;;;;6214912;23;20173;-90
2022/07/01 03:26:36;;;;;;;2.22;2.03;;;;;;;;;;6215169;23;20173;-90
2022/07/01 03:29:04;;;;;;;2.25;2.00;;;;;;;;;;6215174;23;20189;-90
2022/07/01 03:31:32;;;;;;;2.15;1.90;;;;;;;;;;6214854;23;20169;-90
2022/07/01 03:33:59;;;;;;;2.45;2.03;;;;;;;;;;6214801;23;20208;-88
2022/07/01 03:36:33;;;;;;;2.72;1.70;;;;;;;;;;6214708;23;20191;-89
2022/07/01 03:39:09;;;;;;;1.90;1.80;;;;;;;;;;6214658;23;20165;-89
2022/07/01 03:41:47;;;;;;;2.10;1.73;;;;;;;;;;6214957;23;20165;-89
2022/07/01 03:44:34;;;;;;;2.22;2.03;;;;;;;;;;6215074;23;20169;-89
2022/07/01 03:47:05;;;;;;;2.58;1.80;;;;;;;;;;6213928;23;20279;-90
2022/07/01 03:49:57;;;;;;;;;;;;;;;;;;;;;
2022/07/01 03:52:25;;;;;;;1.63;1.52;;;;;;;;;;6215218;23;20146;-90
2022/07/01 03:54:53;;;;;;;1.70;1.60;;;;;;;;;;6214711;23;20173;-90
2022/07/01 04:00:40;;;;;;;1.60;1.50;;;;;;;;;;6208796;23;20188;-90
2022/07/01 04:03:15;;;;;;;1.95;1.75;;;;;;;;;;6214866;23;20173;-90
2022/07/01 04:05:53;;;;;;;1.88;1.77;;;;;;;;;;6214536;23;20164;-89
2022/07/01 04:09:00;;;;;;;1.80;1.70;;;;;;;;;;6214553;23;20189;-89
2022/07/01 04:11:40;;;;;;;1.58;1.48;;;;;;;;;;6214886;23;20169;-89
2022/07/01 04:14:10;;;;;;;2.03;1.60;;;;;;;;;;6214804;23;20180;-89
2022/07/01 04:19:44;;;;;;;1.90;1.73;;;;;;;;;;6200006;23;20256;-90
2022/07/01 04:30:45;;;;;;;1.40;1.30;;;;;;;;;;6211602;23;20256;-89
2022/07/01 04:36:07;;;;;;;1.90;1.30;;;;;;;;;;6212460;23;20186;-92
2022/07/01 04:38:34;;;;;;;1.58;1.20;;;;;;;;;;6225348;23;20228;-92
2022/07/01 04:44:24;;;;;;;1.40;1.30;;;;;;;;;;6220840;23;20221;-90
2022/07/01 04:46:53;;;;;;;4.10;1.90;;;;;;;;;;6218690;23;20200;-89
2022/07/01 04:49:21;;;;;;;12.57;3.47;;;;;;;;;;6219789;23;20208;-90
2022/07/01 04:51:57;;;;;;;8.80;2.80;;;;;;;;;;6216586;23;20193;-90
2022/07/01 04:54:26;;;;;;;11.30;2.95;;;;;;;;;;6217268;23;20169;-91
2022/07/01 04:57:16;;;;;;;9.85;3.05;;;;;;;;;;6216414;23;20201;-90
2022/07/01 05:45:59;;;;;;;2.83;1.27;;;;;;;;;;6146220;23;20172;-90
2022/07/01 06:45:42;;;;;;;3.35;1.50;;;;;;;;;;6121588;23;20634;-90
2022/07/01 06:57:16;;;;;;;2.22;1.30;;;;;;;;;;6113047;23;20210;-90
2022/07/01 06:59:48;;;;;;;2.95;1.40;;;;;;;;;;6194251;23;20174;-90
2022/07/01 07:10:46;;;;;;;2.08;1.27;;;;;;;;;;6253859;22;20195;-91
2022/07/01 07:16:03;;;;;;;1.92;0.90;;;;;;;;;;6264340;22;20201;-93
2022/07/01 07:21:46;;;;;;;2.63;1.50;;;;;;;;;;6257279;22;20219;-92
2022/07/01 07:24:24;;;;;;;2.97;1.17;;;;;;;;;;6273314;22;20154;-92
2022/07/01 07:32:26;;;;;;;1.67;1.00;;;;;;;;;;6217544;23;20177;-92
2022/07/01 07:35:00;;;;;;;1.35;1.10;;;;;;;;;;6219064;23;20177;-88
2022/07/01 07:37:35;;;;;;;1.23;1.10;;;;;;;;;;6216909;23;20192;-90
2022/07/01 07:46:14;;;;;;;2.25;1.30;;;;;;;;;;6217999;23;20169;-89
2022/07/01 07:48:57;;;;;;;1.75;1.20;;;;;;;;;;6218813;23;20221;-91
2022/07/01 07:54:20;;;;;;;1.75;1.20;;;;;;;;;;6216787;23;20174;-90
2022/07/01 07:57:03;;;;;;;1.15;1.00;;;;;;;;;;6217804;23;20189;-91
2022/07/01 07:59:31;;;;;;;1.98;1.20;;;;;;;;;;6218115;23;20215;-90
2022/07/01 08:02:14;;;;;;;3.20;1.25;;;;;;;;;;6218208;23;20173;-90
2022/07/01 08:05:14;;;;;;;1.50;1.10;;;;;;;;;;6218569;23;20204;-91
2022/07/01 08:11:01;;;;;;;3.17;1.38;;;;;;;;;;6125139;23;20203;-90
2022/07/01 08:13:59;;;;;;;1.05;0.95;;;;;;;;;;6207509;23;20173;-91
2022/07/01 08:30:17;;;;;;;1.08;0.98;;;;;;;;;;5893698;22;7631280;-88
2022/07/01 14:04:39;;;;;;;1.92;1.20;;;;;;;;;;6189797;23;20293;-89
2022/07/01 14:07:22;;;;;;;2.28;0.98;;;;;;;;;;6138659;23;20174;-90
2022/07/01 23:31:52;;;;;;;2.85;1.52;;;;;;;;;;6184619;23;20176;-90
